Davey, NE (68336)

12:53 AM CDT on July 24, 2016 (GMT -0500)
APRSWXNET | | Change Station

Elev 1256 ft 41.00 °N, 96.67 °W | Updated 48 minutes ago

Clear
Clear
80 °F
Feels Like 84 °F
N
0
Wind Variable Wind from NW
Gusts 0.0 mph

Today
High -- | Low -- °F
--% Chance of Precip.
Yesterday
High -- | Low -- °F
Precip. -- in
Pressure 29.79 in
Visibility 10.0 miles
Clouds Clear
Heat Index 84 °F
Dew Point 73 °F
Humidity 80%
Rainfall in
Snow Depth Not available.
6:15 AM 8:50 PM
Waning Gibbous, 79% visible
METAR KLNK 240454Z AUTO 00000KT 10SM CLR 29/22 A2984 RMK AO2 SLP088 T02940222
Pressure 29.79 in
Visibility 10.0 miles
Clouds Clear
Heat Index 84 °F
Dew Point 73 °F
Humidity 80%
Rainfall in
Snow Depth Not available.
6:15 AM 8:50 PM
Waning Gibbous, 79% visible
METAR KLNK 240454Z AUTO 00000KT 10SM CLR 29/22 A2984 RMK AO2 SLP088 T02940222

10-Day Weather Forecast

Almanac

Astronomy

Jul. 24, 2016 Rise Set
Actual Time
Civil Twilight
Nautical Twilight
Astronomical Twilight
Moon
Length of Visible Light
Length of Day
Tomorrow will be .
, % of the Moon is Illuminated

Today's Extremes

State Highs State Lows

Community

WunderPhotos

Upload Photos

1,927,039 photos uploaded!

WunderBlog® & News

Nearby

Air Quality

  Air Quality AQ Index Pollutant
Not available.

Snow Depth

Station Depth Elevation

Earthquake Activity

City Distance Mag. Time & Date
Minimum magnitude displayed is 2.5.

Coastal Water Temperatures

Place Temperature

Stations

Nearby Weather Stations

Station Location Temp. Windchill Dew Point Humidity Wind Precip. Elev Updated Type
                   

Watches & Warnings

There are currently no watches in effect.